NCAR-RAP Real-Time Weather Data

Output produced by METARs form (16 August 2018  19:23 UTC)
found at http://weather.rap.ucar.edu/surface/
 
Conditions at: KBKV observed 16 August 2018  18:53 UTC
Temperature: 32.8°C (91°F)
Dewpoint: 22.2°C (72°F) [RH = 54%]
Pressure (altimeter): 30.15 inches Hg (1021.1 mb)
[Sea-level pressure: 1020.9 mb]
Winds: from the S (170 degrees) at 6 MPH (5 knots; 2.6 m/s)
Visibility: 10 or more miles (16+ km)
Ceiling: at least 12,000 feet AGL
Clouds: few clouds at 10000 feet AGL
Present Weather: no significant weather observed at this time
KBKV 161853Z 17005KT 10SM FEW100 33/22 A3015 RMK AO2 LTG DSNT N SLP209 T03280222

Conditions at: KBKV observed 16 August 2018  17:53 UTC
Temperature: 32.8°C (91°F)
Dewpoint: 23.3°C (74°F) [RH = 58%]
Pressure (altimeter): 30.17 inches Hg (1021.8 mb)
[Sea-level pressure: 1021.3 mb]
Winds: from the E (80 degrees) at 5 MPH (4 knots; 2.1 m/s)
Visibility: 10 or more miles (16+ km)
Ceiling: at least 12,000 feet AGL
Clouds: scattered clouds at 4300 feet AGL
scattered clouds at 4900 feet AGL
Present Weather: no significant weather observed at this time
KBKV 161753Z 08004KT 10SM SCT043 SCT049 33/23 A3017 RMK AO2 SLP213 T03280233 10333 20239 58004

Conditions at: KBKV observed 16 August 2018  16:53 UTC
Temperature: 31.7°C (89°F)
Dewpoint: 23.3°C (74°F) [RH = 61%]
Pressure (altimeter): 30.18 inches Hg (1022.1 mb)
[Sea-level pressure: 1021.8 mb]
Winds: from the S (170 degrees) at 6 MPH (5 knots; 2.6 m/s)
Visibility: 10 or more miles (16+ km)
Ceiling: 9000 feet AGL
Clouds: scattered clouds at 3700 feet AGL
scattered clouds at 7000 feet AGL
broken clouds at 9000 feet AGL
Present Weather: no significant weather observed at this time
KBKV 161653Z 17005KT 10SM SCT037 SCT070 BKN090 32/23 A3018 RMK AO2 SLP218 T03170233

Conditions at: KBKV observed 16 August 2018  15:53 UTC
Temperature: 31.7°C (89°F)
Dewpoint: 24.4°C (76°F) [RH = 65%]
Pressure (altimeter): 30.18 inches Hg (1022.1 mb)
[Sea-level pressure: 1021.9 mb]
Winds: from the ESE (110 degrees) at 8 MPH (7 knots; 3.6 m/s)
Visibility: 10 or more miles (16+ km)
Ceiling: at least 12,000 feet AGL
Clouds: sky clear below 12,000 feet AGL
Present Weather: no significant weather observed at this time
KBKV 161553Z 11007KT 10SM CLR 32/24 A3018 RMK AO2 SLP219 T03170244

Conditions at: KBKV observed 16 August 2018  14:53 UTC
Temperature: 30.0°C (86°F)
Dewpoint: 23.9°C (75°F) [RH = 70%]
Pressure (altimeter): 30.18 inches Hg (1022.1 mb)
[Sea-level pressure: 1021.7 mb]
Winds: from the SSE (160 degrees) at 9 MPH (8 knots; 4.2 m/s)
Visibility: 10 or more miles (16+ km)
Ceiling: at least 12,000 feet AGL
Clouds: sky clear below 12,000 feet AGL
Present Weather: no significant weather observed at this time
KBKV 161453Z 16008KT 10SM CLR 30/24 A3018 RMK AO2 SLP217 T03000239 51011

Conditions at: KBKV observed 16 August 2018  13:53 UTC
Temperature: 27.8°C (82°F)
Dewpoint: 24.4°C (76°F) [RH = 82%]
Pressure (altimeter): 30.17 inches Hg (1021.8 mb)
[Sea-level pressure: 1021.5 mb]
Winds: from the SE (140 degrees) at 7 MPH (6 knots; 3.1 m/s)
Visibility: 10 or more miles (16+ km)
Ceiling: at least 12,000 feet AGL
Clouds: sky clear below 12,000 feet AGL
Present Weather: no significant weather observed at this time
KBKV 161353Z 14006KT 10SM CLR 28/24 A3017 RMK AO2 SLP215 T02780244

Conditions at: KBKV observed 16 August 2018  12:53 UTC
Temperature: 26.1°C (79°F)
Dewpoint: 22.8°C (73°F) [RH = 82%]
Pressure (altimeter): 30.17 inches Hg (1021.8 mb)
[Sea-level pressure: 1021.3 mb]
Winds: from the SE (130 degrees) at 6 MPH (5 knots; 2.6 m/s)
Visibility: 10 or more miles (16+ km)
Ceiling: at least 12,000 feet AGL
Clouds: sky clear below 12,000 feet AGL
Present Weather: no significant weather observed at this time
KBKV 161253Z 13005KT 10SM CLR 26/23 A3017 RMK AO2 SLP213 T02610228

Conditions at: KBKV observed 16 August 2018  11:53 UTC
Temperature: 23.9°C (75°F)
Dewpoint: 22.2°C (72°F) [RH = 90%]
Pressure (altimeter): 30.15 inches Hg (1021.1 mb)
[Sea-level pressure: 1020.6 mb]
Winds: from the ESE (120 degrees) at 5 MPH (4 knots; 2.1 m/s)
Visibility: 10 or more miles (16+ km)
Ceiling: at least 12,000 feet AGL
Clouds: sky clear below 12,000 feet AGL
Present Weather: no significant weather observed at this time
KBKV 161153Z 12004KT 10SM CLR 24/22 A3015 RMK AO2 SLP206 70015 T02390222 10239 20228 53014

Conditions at: KBKV observed 16 August 2018  10:53 UTC
Temperature: 22.8°C (73°F)
Dewpoint: 21.7°C (71°F) [RH = 94%]
Pressure (altimeter): 30.13 inches Hg (1020.4 mb)
[Sea-level pressure: 1020.1 mb]
Winds: from the ESE (120 degrees) at 5 MPH (4 knots; 2.1 m/s)
Visibility: 10 or more miles (16+ km)
Ceiling: at least 12,000 feet AGL
Clouds: sky clear below 12,000 feet AGL
Present Weather: no significant weather observed at this time
KBKV 161053Z 12004KT 10SM CLR 23/22 A3013 RMK AO2 SLP201 T02280217

Conditions at: KBKV observed 16 August 2018  09:53 UTC
Temperature: 22.8°C (73°F)
Dewpoint: 21.7°C (71°F) [RH = 94%]
Pressure (altimeter): 30.12 inches Hg (1020.1 mb)
[Sea-level pressure: 1019.6 mb]
Winds: from the E (100 degrees) at 3 MPH (3 knots; 1.6 m/s)
Visibility: 10 or more miles (16+ km)
Ceiling: at least 12,000 feet AGL
Clouds: sky clear below 12,000 feet AGL
Present Weather: automated observation with no human augmentation;
there may or may not be significant weather present at this time
KBKV 160953Z AUTO 10003KT 10SM CLR 23/22 A3012 RMK AO2 SLP196 T02280217

Conditions at: KBKV observed 16 August 2018  08:53 UTC
Temperature: 22.8°C (73°F)
Dewpoint: 21.7°C (71°F) [RH = 94%]
Pressure (altimeter): 30.11 inches Hg (1019.7 mb)
[Sea-level pressure: 1019.2 mb]
Winds: from the ENE (70 degrees) at 3 MPH (3 knots; 1.6 m/s)
Visibility: 10 or more miles (16+ km)
Ceiling: at least 12,000 feet AGL
Clouds: sky clear below 12,000 feet AGL
Present Weather: automated observation with no human augmentation;
there may or may not be significant weather present at this time
KBKV 160853Z AUTO 07003KT 10SM CLR 23/22 A3011 RMK AO2 SLP192 T02280217 55014

Conditions at: KBKV observed 16 August 2018  07:53 UTC
Temperature: 22.8°C (73°F)
Dewpoint: 22.2°C (72°F) [RH = 96%]
Pressure (altimeter): 30.10 inches Hg (1019.4 mb)
[Sea-level pressure: 1019.1 mb]
Winds: from the E (80 degrees) at 6 MPH (5 knots; 2.6 m/s)
Visibility: 10 or more miles (16+ km)
Ceiling: at least 12,000 feet AGL
Clouds: sky clear below 12,000 feet AGL
Present Weather: automated observation with no human augmentation;
there may or may not be significant weather present at this time
KBKV 160753Z AUTO 08005KT 10SM CLR 23/22 A3010 RMK AO2 SLP191 T02280222

Conditions at: KBKV observed 16 August 2018  06:53 UTC
Temperature: 22.8°C (73°F)
Dewpoint: 22.2°C (72°F) [RH = 96%]
Pressure (altimeter): 30.11 inches Hg (1019.7 mb)
[Sea-level pressure: 1019.4 mb]
Winds: from the E (80 degrees) at 3 MPH (3 knots; 1.6 m/s)
Visibility: 10 or more miles (16+ km)
Ceiling: at least 12,000 feet AGL
Clouds: sky clear below 12,000 feet AGL
Present Weather: automated observation with no human augmentation;
there may or may not be significant weather present at this time
KBKV 160653Z AUTO 08003KT 10SM CLR 23/22 A3011 RMK AO2 SLP194 T02280222

Conditions at: KBKV observed 16 August 2018  05:53 UTC
Temperature: 23.3°C (74°F)
Dewpoint: 21.7°C (71°F) [RH = 91%]
Pressure (altimeter): 30.14 inches Hg (1020.7 mb)
[Sea-level pressure: 1020.5 mb]
Winds: from the ESE (120 degrees) at 3 MPH (3 knots; 1.6 m/s)
Visibility: 10 or more miles (16+ km)
Ceiling: at least 12,000 feet AGL
Clouds: sky clear below 12,000 feet AGL
Present Weather: automated observation with no human augmentation;
there may or may not be significant weather present at this time
KBKV 160553Z AUTO 12003KT 10SM CLR 23/22 A3014 RMK AO2 SLP205 60003 T02330217 10239 20228 51004

Conditions at: KBKV observed 16 August 2018  04:53 UTC
Temperature: 22.8°C (73°F)
Dewpoint: 21.7°C (71°F) [RH = 94%]
Pressure (altimeter): 30.14 inches Hg (1020.7 mb)
[Sea-level pressure: 1020.5 mb]
Winds: from the ENE (60 degrees) at 5 MPH (4 knots; 2.1 m/s)
Visibility: 10 or more miles (16+ km)
Ceiling: at least 12,000 feet AGL
Clouds: sky clear below 12,000 feet AGL
Present Weather: automated observation with no human augmentation;
there may or may not be significant weather present at this time
KBKV 160453Z AUTO 06004KT 10SM CLR 23/22 A3014 RMK AO2 SLP205 T02280217 403390217

Conditions at: KBKV observed 16 August 2018  03:53 UTC
Temperature: 23.3°C (74°F)
Dewpoint: 22.2°C (72°F) [RH = 94%]
Pressure (altimeter): 30.15 inches Hg (1021.1 mb)
[Sea-level pressure: 1020.6 mb]
Winds: from the ENE (60 degrees) at 6 MPH (5 knots; 2.6 m/s)
Visibility: 10 or more miles (16+ km)
Ceiling: at least 12,000 feet AGL
Clouds: sky clear below 12,000 feet AGL
Present Weather: automated observation with no human augmentation;
there may or may not be significant weather present at this time
KBKV 160353Z AUTO 06005KT 10SM CLR 23/22 A3015 RMK AO2 SLP206 T02330222

Conditions at: KBKV observed 16 August 2018  02:53 UTC
Temperature: 23.3°C (74°F)
Dewpoint: 22.8°C (73°F) [RH = 97%]
Pressure (altimeter): 30.13 inches Hg (1020.4 mb)
[Sea-level pressure: 1020.1 mb]
Winds: calm
Visibility: 10 or more miles (16+ km)
Ceiling: at least 12,000 feet AGL
Clouds: sky clear below 12,000 feet AGL
Present Weather: automated observation with no human augmentation;
there may or may not be significant weather present at this time
KBKV 160253Z AUTO 00000KT 10SM CLR 23/23 A3013 RMK AO2 SLP201 60003 T02330228 53007

Conditions at: KBKV observed 16 August 2018  01:53 UTC
Temperature: 23.9°C (75°F)
Dewpoint: 22.8°C (73°F) [RH = 94%]
Pressure (altimeter): 30.11 inches Hg (1019.7 mb)
[Sea-level pressure: 1019.5 mb]
Winds: calm
Visibility: 10 or more miles (16+ km)
Ceiling: at least 12,000 feet AGL
Clouds: sky clear below 12,000 feet AGL
Present Weather: automated observation with no human augmentation;
there may or may not be significant weather present at this time
KBKV 160153Z AUTO 00000KT 10SM CLR 24/23 A3011 RMK AO2 RAE19 SLP195 P0001 T02390228

Conditions at: KBKV observed 16 August 2018  00:53 UTC
Temperature: 23.3°C (74°F)
Dewpoint: 22.2°C (72°F) [RH = 94%]
Pressure (altimeter): 30.11 inches Hg (1019.7 mb)
[Sea-level pressure: 1019.3 mb]
Winds: calm
Visibility: 10 or more miles (16+ km)
Ceiling: 11000 feet AGL
Clouds: broken clouds at 11000 feet AGL
Present Weather: -RA  (light rain)
KBKV 160053Z 00000KT 10SM -RA BKN110 23/22 A3011 RMK AO2 SLP193 P0002 T02330222

Conditions at: KBKV observed 15 August 2018  23:53 UTC
Temperature: 23.9°C (75°F)
Dewpoint: 22.2°C (72°F) [RH = 90%]
Pressure (altimeter): 30.11 inches Hg (1019.7 mb)
[Sea-level pressure: 1019.5 mb]
Winds: calm
Visibility: 10 or more miles (16+ km)
Ceiling: at least 12,000 feet AGL
Clouds: sky clear below 12,000 feet AGL
Present Weather: -RA  (light rain)
KBKV 152353Z 00000KT 10SM -RA CLR 24/22 A3011 RMK AO2 LTG DSNT NE TSE2257 SLP195 P0003 60012 T02390222 10339 20228 53012

Conditions at: KBKV observed 15 August 2018  23:16 UTC
Temperature: 23.9°C (75°F)
Dewpoint: 21.7°C (71°F) [RH = 88%]
Pressure (altimeter): 30.10 inches Hg (1019.4 mb)
Winds: from the ENE (70 degrees) at 8 MPH (7 knots; 3.6 m/s)
Visibility: 10 or more miles (16+ km)
Ceiling: at least 12,000 feet AGL
Clouds: few clouds at 9000 feet AGL
scattered clouds at 12000 feet AGL
Present Weather: -RA  (light rain)
KBKV 152316Z 07007KT 10SM -RA FEW090 SCT120 24/22 A3010 RMK AO2 LTG DSNT N-E TSE2257 P0001 T02390217

Conditions at: KBKV observed 15 August 2018  23:03 UTC
Temperature: 23.3°C (74°F)
Dewpoint: 21.1°C (70°F) [RH = 87%]
Pressure (altimeter): 30.10 inches Hg (1019.4 mb)
Winds: from the NE (50 degrees) at 10 MPH (9 knots; 4.7 m/s)
Visibility: 10 or more miles (16+ km)
Ceiling: 11000 feet AGL
Clouds: few clouds at 8500 feet AGL
broken clouds at 11000 feet AGL
Present Weather: VCTS -RA  (thunderstorm in vicinity, light rain)
KBKV 152303Z 05009KT 10SM VCTS -RA FEW085 BKN110 23/21 A3010 RMK AO2 LTG DSNT NE AND E TSE2257 P0000 T02330211

Conditions at: KBKV observed 15 August 2018  22:53 UTC
Temperature: 23.3°C (74°F)
Dewpoint: 21.1°C (70°F) [RH = 87%]
Pressure (altimeter): 30.09 inches Hg (1019.0 mb)
[Sea-level pressure: 1018.8 mb]
Winds: from the ENE (60 degrees) at 12 MPH (10 knots; 5.2 m/s)
Visibility: 10 or more miles (16+ km)
Ceiling: 9000 feet AGL
Clouds: few clouds at 6500 feet AGL
broken clouds at 9000 feet AGL
overcast cloud deck at 11000 feet AGL
Present Weather: -TSRA  (light rain associated with thunderstorm(s))
KBKV 152253Z 06010KT 10SM -TSRA FEW065 BKN090 OVC110 23/21 A3009 RMK AO2 PK WND 15033/2154 WSHFT 2143 LTG DSNT N-E RAB2154 SLP188 P0009 T02330211

Conditions at: KBKV observed 15 August 2018  22:03 UTC
Temperature: 24.4°C (76°F)
Dewpoint: 19.4°C (67°F) [RH = 74%]
Pressure (altimeter): 30.09 inches Hg (1019.0 mb)
Winds: from the SSE (150 degrees) at 21 MPH (18 knots; 9.4 m/s)
gusting to 38 MPH (33 knots; 17.2 m/s)
Visibility: 10 or more miles (16+ km)
Ceiling: 3800 feet AGL
Clouds: broken clouds at 3800 feet AGL
broken clouds at 4800 feet AGL
overcast cloud deck at 7000 feet AGL
Present Weather: -TSRA  (light rain associated with thunderstorm(s))
KBKV 152203Z 15018G33KT 10SM -TSRA BKN038 BKN048 OVC070 24/19 A3009 RMK AO2 PK WND 15033/2154 WSHFT 2143 LTG DSNT E-SW RAB2154 P0000 T02440194

Conditions at: KBKV observed 15 August 2018  21:53 UTC
Temperature: 26.1°C (79°F)
Dewpoint: 20.0°C (68°F) [RH = 69%]
Pressure (altimeter): 30.08 inches Hg (1018.7 mb)
[Sea-level pressure: 1018.3 mb]
Winds: from the SSE (150 degrees) at 31 MPH (27 knots; 14.0 m/s)
gusting to 43 MPH (37 knots; 19.2 m/s)
Visibility: 10 or more miles (16+ km)
Ceiling: 4800 feet AGL
Clouds: scattered clouds at 3600 feet AGL
broken clouds at 4800 feet AGL
broken clouds at 7000 feet AGL
Present Weather: TS  (thunderstorm)
KBKV 152153Z 15027G37KT 10SM TS SCT036 BKN048 BKN070 26/20 A3008 RMK AO2 PK WND 17037/2151 LTG DSNT E-SW TSB46 SLP183 T02610200

Conditions at: KBKV observed 15 August 2018  21:21 UTC
Temperature: 32.2°C (90°F)
Dewpoint: 23.3°C (74°F) [RH = 59%]
Pressure (altimeter): 30.05 inches Hg (1017.7 mb)
Winds: from the WNW (300 degrees) at 13 MPH (11 knots; 5.7 m/s)
Visibility: 10 or more miles (16+ km)
Ceiling: at least 12,000 feet AGL
Clouds: sky clear below 12,000 feet AGL
Present Weather: VCTS  (thunderstorm in vicinity)
KBKV 152121Z 30011KT 10SM VCTS CLR 32/23 A3005 RMK AO2 LTG DSNT E-SW T03220233

Conditions at: KBKV observed 15 August 2018  20:53 UTC
Temperature: 31.1°C (88°F)
Dewpoint: 22.8°C (73°F) [RH = 61%]
Pressure (altimeter): 30.06 inches Hg (1018.0 mb)
[Sea-level pressure: 1017.7 mb]
Winds: from the W (270 degrees) at 8 MPH (7 knots; 3.6 m/s)
Visibility: 10 or more miles (16+ km)
Ceiling: at least 12,000 feet AGL
Clouds: few clouds at 4300 feet AGL
Present Weather: no significant weather observed at this time
KBKV 152053Z 27007KT 10SM FEW043 31/23 A3006 RMK AO2 LTG DSNT SE AND S SLP177 T03110228 56017

Conditions at: KBKV observed 15 August 2018  19:53 UTC
Temperature: 33.9°C (93°F)
Dewpoint: 21.7°C (71°F) [RH = 49%]
Pressure (altimeter): 30.07 inches Hg (1018.4 mb)
[Sea-level pressure: 1018.1 mb]
Winds: from the WSW (240 degrees) at 5 MPH (4 knots; 2.1 m/s)
Visibility: 10 or more miles (16+ km)
Ceiling: at least 12,000 feet AGL
Clouds: few clouds at 5000 feet AGL
Present Weather: no significant weather observed at this time
KBKV 151953Z 24004KT 10SM FEW050 34/22 A3007 RMK AO2 SLP181 T03390217